createdAt,value
2023-12-30T00:00:26.157Z,97784.31
2023-12-30T00:02:53.262Z,97789.59
2023-12-30T00:05:20.343Z,97795.28
2023-12-30T00:07:47.345Z,97796.72
2023-12-30T00:10:14.599Z,97807.19
2023-12-30T00:12:41.681Z,97811.97
2023-12-30T00:15:09.245Z,97815.09
2023-12-30T00:17:36.464Z,97822.84
2023-12-30T00:20:03.982Z,97822.84
2023-12-30T00:22:31.048Z,97814.53
2023-12-30T00:24:58.164Z,97805.25
2023-12-30T00:27:25.236Z,97811.78
2023-12-30T00:29:52.440Z,97812.38
2023-12-30T00:32:19.486Z,97814.38
2023-12-30T00:34:46.642Z,97820.06
2023-12-30T00:37:15.080Z,97822.63
2023-12-30T00:39:42.549Z,97820.50
2023-12-30T00:42:09.671Z,97818.66
2023-12-30T00:44:36.826Z,97825.78
2023-12-30T00:47:03.922Z,97822.56
2023-12-30T00:49:31.149Z,97827.91
2023-12-30T00:51:59.212Z,97826.91
2023-12-30T00:54:29.882Z,97822.16
2023-12-30T00:56:58.961Z,97825.28
2023-12-30T00:59:26.139Z,97821.31
2023-12-30T01:01:53.272Z,97828.44
2023-12-30T01:04:20.326Z,97836.16
2023-12-30T01:06:47.454Z,97838.34
2023-12-30T01:09:14.637Z,97833.19
2023-12-30T01:11:42.193Z,97831.19
2023-12-30T01:14:09.321Z,97837.56
2023-12-30T01:16:37.532Z,97829.47
2023-12-30T01:19:04.622Z,97841.69
2023-12-30T01:21:31.747Z,97834.03
2023-12-30T01:23:58.724Z,97831.69
2023-12-30T01:26:25.793Z,97839.97
2023-12-30T01:28:52.830Z,97842.47
2023-12-30T01:31:20.226Z,97841.47
2023-12-30T01:33:47.482Z,97847.75
2023-12-30T01:36:14.606Z,97853.31
2023-12-30T01:38:43.003Z,97841.63
2023-12-30T01:41:10.294Z,97845.41
2023-12-30T01:43:38.395Z,97835.94
2023-12-30T01:46:08.380Z,97838.28
2023-12-30T01:48:36.435Z,97854.41
2023-12-30T01:51:04.346Z,97848.19
2023-12-30T01:53:37.984Z,97851.94
2023-12-30T01:56:05.568Z,97857.84
2023-12-30T01:58:34.027Z,97853.31
2023-12-30T02:01:01.712Z,97861.16
2023-12-30T02:03:28.873Z,97869.63
2023-12-30T02:05:56.200Z,97871.84
2023-12-30T02:08:23.358Z,97873.97
2023-12-30T02:10:50.773Z,97873.19
2023-12-30T02:13:17.869Z,97873.41
2023-12-30T02:15:45.038Z,97872.63
2023-12-30T02:18:12.168Z,97865.16
2023-12-30T02:20:39.969Z,97863.97
2023-12-30T02:23:07.172Z,97874.69
2023-12-30T02:25:34.275Z,97865.75
2023-12-30T02:28:01.363Z,97863.59
2023-12-30T02:30:28.481Z,97875.41
2023-12-30T02:32:59.051Z,97876.59
2023-12-30T02:35:26.596Z,97874.97
2023-12-30T02:37:53.650Z,97877.97
2023-12-30T02:40:20.812Z,97865.31
2023-12-30T02:42:48.006Z,97869.06
2023-12-30T02:45:16.734Z,97883.09
2023-12-30T02:47:44.174Z,97880.31
2023-12-30T02:50:11.912Z,97881.31
2023-12-30T02:52:39.028Z,97873.84
2023-12-30T02:55:07.460Z,97890.00
2023-12-30T02:57:47.996Z,97878.69
2023-12-30T03:00:18.598Z,97888.81
2023-12-30T03:02:46.132Z,97884.88
2023-12-30T03:05:13.361Z,97892.38
2023-12-30T03:07:40.688Z,97885.66
2023-12-30T03:10:08.404Z,97891.38
2023-12-30T03:12:36.109Z,97886.06
2023-12-30T03:15:03.213Z,97886.66
2023-12-30T03:17:30.405Z,97873.84
2023-12-30T03:19:57.558Z,97873.41
2023-12-30T03:22:26.127Z,97878.97
2023-12-30T03:24:53.585Z,97887.22
2023-12-30T03:27:20.619Z,97884.84
2023-12-30T03:29:48.385Z,97884.06
2023-12-30T03:32:15.438Z,97876.69
2023-12-30T03:34:44.253Z,97882.06
2023-12-30T03:37:11.958Z,97875.56
2023-12-30T03:39:39.155Z,97878.13
2023-12-30T03:42:06.379Z,97879.47
2023-12-30T03:44:33.990Z,97873.13
2023-12-30T03:47:01.104Z,97875.91
2023-12-30T03:49:28.366Z,97883.06
2023-12-30T03:51:55.472Z,97883.25
2023-12-30T03:54:22.576Z,97889.38
2023-12-30T03:56:49.603Z,97884.63
2023-12-30T03:59:16.614Z,97883.63
2023-12-30T04:01:45.132Z,97895.09
2023-12-30T04:04:12.347Z,97902.97
2023-12-30T04:06:39.390Z,97903.94
2023-12-30T04:09:06.486Z,97906.09
2023-12-30T04:11:33.598Z,97904.53
2023-12-30T04:14:01.499Z,97895.88
2023-12-30T04:16:28.767Z,97901.78
2023-12-30T04:18:55.894Z,97898.44
2023-12-30T04:21:22.996Z,97899.78
2023-12-30T04:23:50.073Z,97907.72
2023-12-30T04:26:17.074Z,97897.44
2023-12-30T04:28:47.610Z,97898.78
2023-12-30T04:31:14.869Z,97894.09
2023-12-30T04:33:41.957Z,97907.31
2023-12-30T04:36:09.105Z,97910.50
2023-12-30T04:38:36.798Z,97903.16
2023-12-30T04:41:03.970Z,97907.31
2023-12-30T04:43:31.000Z,97902.78
2023-12-30T04:45:58.510Z,97896.22
2023-12-30T04:48:25.539Z,97916.41
2023-12-30T04:50:52.605Z,97906.53
2023-12-30T04:53:19.694Z,97902.06
2023-12-30T04:55:46.719Z,97905.97
2023-12-30T04:58:13.827Z,97919.31
2023-12-30T05:00:40.882Z,97906.97
2023-12-30T05:03:08.155Z,97896.28
2023-12-30T05:05:35.616Z,97910.09
2023-12-30T05:08:05.276Z,97918.03
2023-12-30T05:10:34.640Z,97919.41
2023-12-30T05:13:02.611Z,97909.31
2023-12-30T05:15:30.104Z,97928.94
2023-12-30T05:17:57.279Z,97922.41
2023-12-30T05:20:24.339Z,97921.69
2023-12-30T05:22:51.422Z,97914.34
2023-12-30T05:25:18.520Z,97922.47
2023-12-30T05:27:45.566Z,97933.91
2023-12-30T05:30:12.925Z,97929.50
2023-12-30T05:32:40.046Z,97922.25
2023-12-30T05:35:08.414Z,97924.59
2023-12-30T05:37:35.644Z,97921.97
2023-12-30T05:40:03.108Z,97925.16
2023-12-30T05:42:31.773Z,97925.88
2023-12-30T05:44:59.268Z,97920.84
2023-12-30T05:47:26.470Z,97924.56
2023-12-30T05:49:53.825Z,97928.31
2023-12-30T05:52:21.022Z,97914.88
2023-12-30T05:54:48.326Z,97929.69
2023-12-30T05:57:15.419Z,97925.53
2023-12-30T05:59:43.324Z,97928.69
2023-12-30T06:02:11.339Z,97934.81
2023-12-30T06:04:42.559Z,97937.38
2023-12-30T06:07:10.999Z,97936.38
2023-12-30T06:09:38.197Z,97936.97
2023-12-30T06:12:05.474Z,97955.94
2023-12-30T06:14:32.562Z,97949.19
2023-12-30T06:16:59.605Z,97958.06
2023-12-30T06:19:26.723Z,97955.94
2023-12-30T06:21:53.898Z,97960.69
2023-12-30T06:24:20.999Z,97962.03
2023-12-30T06:26:48.129Z,97970.91
2023-12-30T06:29:15.295Z,97976.44
2023-12-30T06:31:43.268Z,97973.88
2023-12-30T06:34:13.152Z,97972.09
2023-12-30T06:36:44.630Z,97972.50
2023-12-30T06:39:14.327Z,97975.25
2023-12-30T06:41:41.784Z,97971.09
2023-12-30T06:44:09.710Z,97972.09
2023-12-30T06:46:36.925Z,97972.47
2023-12-30T06:49:04.181Z,97969.31
2023-12-30T06:51:31.340Z,97971.91
2023-12-30T06:53:58.302Z,97973.28
2023-12-30T06:56:25.588Z,97976.03
2023-12-30T06:58:53.326Z,97983.50
2023-12-30T07:01:24.709Z,97976.81
2023-12-30T07:03:52.017Z,97990.22
2023-12-30T07:06:19.256Z,97992.59
2023-12-30T07:08:46.836Z,97996.16
2023-12-30T07:11:13.885Z,97988.28
2023-12-30T07:13:41.036Z,97999.69
2023-12-30T07:16:08.320Z,98001.28
2023-12-30T07:18:35.363Z,98001.25
2023-12-30T07:21:02.502Z,97995.50
2023-12-30T07:23:29.500Z,97992.75
2023-12-30T07:25:56.507Z,98011.53
2023-12-30T07:28:23.722Z,97998.50
2023-12-30T07:30:51.785Z,98004.41
2023-12-30T07:33:18.930Z,97997.28
2023-12-30T07:35:46.058Z,97997.13
2023-12-30T07:38:13.387Z,98005.25
2023-12-30T07:40:40.657Z,98007.25
2023-12-30T07:43:07.956Z,97997.53
2023-12-30T07:45:34.880Z,98008.03
2023-12-30T07:48:01.883Z,98014.13
2023-12-30T07:50:28.932Z,98026.34
2023-12-30T07:52:55.917Z,98021.41
2023-12-30T07:55:22.927Z,98024.00
2023-12-30T07:57:49.993Z,98014.69
2023-12-30T08:00:17.542Z,98024.94
2023-12-30T08:02:45.823Z,98016.69
2023-12-30T08:05:13.071Z,98024.94
2023-12-30T08:07:40.208Z,98014.25
2023-12-30T08:10:07.919Z,98022.13
2023-12-30T08:12:37.173Z,98014.03
2023-12-30T08:15:05.792Z,98017.16
2023-12-30T08:17:32.963Z,98017.34
2023-12-30T08:20:00.135Z,98018.50
2023-12-30T08:22:27.308Z,98016.66
2023-12-30T08:24:55.334Z,98016.88
2023-12-30T08:27:22.616Z,98024.00
2023-12-30T08:29:50.022Z,98016.09
2023-12-30T08:32:17.139Z,98019.84
2023-12-30T08:34:45.687Z,98009.97
2023-12-30T08:37:13.560Z,98010.16
2023-12-30T08:39:40.597Z,98022.03
2023-12-30T08:42:08.287Z,98018.50
2023-12-30T08:44:39.139Z,98029.72
2023-12-30T08:47:06.975Z,98020.63
2023-12-30T08:49:34.414Z,98020.97
2023-12-30T08:52:01.519Z,98032.53
2023-12-30T08:54:28.641Z,98038.28
2023-12-30T08:56:56.229Z,98028.56
2023-12-30T08:59:25.594Z,98026.94
2023-12-30T09:01:53.433Z,98026.50
2023-12-30T09:04:20.902Z,98023.59
2023-12-30T09:06:48.031Z,98026.72
2023-12-30T09:09:15.101Z,98023.81
2023-12-30T09:11:44.381Z,98033.50
2023-12-30T09:14:11.953Z,98036.66
2023-12-30T09:16:39.152Z,98047.16
2023-12-30T09:19:06.603Z,98042.84
2023-12-30T09:21:33.883Z,98043.38
2023-12-30T09:24:00.973Z,98043.75
2023-12-30T09:26:28.558Z,98046.50
2023-12-30T09:28:55.843Z,98043.94
2023-12-30T09:31:28.947Z,98045.78
2023-12-30T09:33:56.230Z,98052.47
2023-12-30T09:36:23.262Z,98052.84
2023-12-30T09:38:51.198Z,98062.34
2023-12-30T09:41:22.149Z,98056.53
2023-12-30T09:43:50.369Z,98055.72
2023-12-30T09:46:18.374Z,98066.44
2023-12-30T09:48:51.048Z,98066.69
2023-12-30T09:51:18.140Z,98082.78
2023-12-30T09:53:45.160Z,98074.28
2023-12-30T09:56:13.306Z,98074.88
2023-12-30T09:58:41.637Z,98065.84
2023-12-30T10:01:08.773Z,98070.22
2023-12-30T10:03:36.179Z,98067.38
2023-12-30T10:06:05.782Z,98078.06
2023-12-30T10:08:33.144Z,98068.25
2023-12-30T10:11:00.398Z,98069.22
2023-12-30T10:13:27.880Z,98069.56
2023-12-30T10:15:59.002Z,98070.66
2023-12-30T10:18:27.563Z,98064.19
2023-12-30T10:20:55.295Z,98065.91
2023-12-30T10:23:22.846Z,98057.66
2023-12-30T10:25:50.268Z,98066.16
2023-12-30T10:28:17.821Z,98066.31
2023-12-30T10:30:45.008Z,98065.16
2023-12-30T10:33:13.802Z,98067.88
2023-12-30T10:35:45.505Z,98055.63
2023-12-30T10:38:15.490Z,98057.78
2023-12-30T10:40:44.884Z,98055.59
2023-12-30T10:43:13.783Z,98055.59
2023-12-30T10:45:41.982Z,98062.84
2023-12-30T10:48:09.826Z,98067.66
2023-12-30T10:50:40.657Z,98076.06
2023-12-30T10:53:12.608Z,98060.28
2023-12-30T10:55:55.080Z,98057.09
2023-12-30T10:58:26.014Z,98072.88
2023-12-30T11:00:57.530Z,98077.31
2023-12-30T11:03:26.101Z,98072.03
2023-12-30T11:06:11.597Z,98069.06
2023-12-30T11:08:43.039Z,98066.09
2023-12-30T11:11:12.972Z,98069.06
2023-12-30T11:13:42.957Z,98072.03
2023-12-30T11:16:17.142Z,98060.78
2023-12-30T11:19:04.681Z,98069.94
2023-12-30T11:21:48.066Z,98056.47
2023-12-30T11:24:19.065Z,98053.47
2023-12-30T11:26:47.802Z,98061.00
2023-12-30T11:29:16.094Z,98052.38
2023-12-30T11:31:45.422Z,98050.78
2023-12-30T11:34:14.813Z,98042.75
2023-12-30T11:36:42.731Z,98047.09
2023-12-30T11:39:10.140Z,98042.41
2023-12-30T11:41:37.248Z,98042.19
2023-12-30T11:44:07.229Z,98043.75
2023-12-30T11:46:35.174Z,98039.13
2023-12-30T11:49:02.588Z,98036.13
2023-12-30T11:51:31.423Z,98024.16
2023-12-30T11:53:58.591Z,98021.97
2023-12-30T11:56:25.655Z,98008.44
2023-12-30T11:58:53.040Z,98006.28
2023-12-30T12:01:20.868Z,98007.59
2023-12-30T12:03:48.431Z,97996.81
2023-12-30T12:06:16.406Z,98002.34
2023-12-30T12:08:44.530Z,97999.44
2023-12-30T12:11:11.693Z,97996.47
2023-12-30T12:13:41.259Z,97991.41
2023-12-30T12:16:09.141Z,97996.47
2023-12-30T12:21:39.789Z,97979.09
2023-12-30T12:24:08.098Z,97986.78
2023-12-30T12:26:38.283Z,97988.28
2023-12-30T12:29:05.926Z,97980.72
2023-12-30T12:31:33.156Z,97983.78
2023-12-30T12:34:01.995Z,97974.00
2023-12-30T12:36:29.272Z,97979.72
2023-12-30T12:38:56.362Z,97983.00
2023-12-30T12:41:23.401Z,97985.00
2023-12-30T12:43:50.509Z,97995.06
2023-12-30T12:46:17.981Z,97985.41
2023-12-30T12:48:45.297Z,97972.63
2023-12-30T12:51:12.668Z,97970.34
2023-12-30T12:53:39.662Z,97965.91
2023-12-30T12:58:49.430Z,97971.97
2023-12-30T13:03:50.023Z,97966.53
2023-12-30T13:06:17.591Z,97960.88
2023-12-30T13:08:47.182Z,97957.69
2023-12-30T13:14:19.740Z,97952.00
2023-12-30T13:16:49.605Z,97954.19
2023-12-30T13:19:18.207Z,97951.69
2023-12-30T13:21:48.364Z,97947.91
2023-12-30T13:24:16.259Z,97950.91
2023-12-30T13:26:46.583Z,97960.81
2023-12-30T13:29:15.020Z,97951.03
2023-12-30T13:31:45.620Z,97948.34
2023-12-30T13:34:13.804Z,97944.53
2023-12-30T13:36:41.531Z,97940.56
2023-12-30T13:39:11.690Z,97933.44
2023-12-30T13:41:38.999Z,97935.78
2023-12-30T13:44:09.091Z,97932.19
2023-12-30T13:46:45.166Z,97939.59
2023-12-30T13:49:15.534Z,97941.03
2023-12-30T13:51:48.775Z,97936.28
2023-12-30T13:54:22.140Z,97930.47
2023-12-30T13:56:52.326Z,97927.38
2023-12-30T13:59:20.246Z,97920.97
2023-12-30T14:01:47.478Z,97925.00
2023-12-30T14:04:17.765Z,97925.00
2023-12-30T14:06:45.423Z,97928.34
2023-12-30T14:12:06.668Z,97925.69
2023-12-30T14:14:43.798Z,97929.59
2023-12-30T14:17:11.126Z,97940.66
2023-12-30T14:19:39.100Z,97920.50
2023-12-30T14:22:08.705Z,97931.47
2023-12-30T14:24:36.018Z,97924.88
2023-12-30T14:27:03.261Z,97923.84
2023-12-30T14:29:30.420Z,97910.88
2023-12-30T14:31:58.647Z,97908.19
2023-12-30T14:34:26.040Z,97907.97
2023-12-30T14:36:53.611Z,97908.84
2023-12-30T14:39:23.146Z,97910.97
2023-12-30T14:41:50.129Z,97908.41
2023-12-30T14:44:17.186Z,97913.31
2023-12-30T14:46:45.257Z,97915.88
2023-12-30T14:49:13.618Z,97908.47
2023-12-30T14:51:40.842Z,97907.22
2023-12-30T14:54:07.920Z,97904.09
2023-12-30T14:56:35.923Z,97906.19
2023-12-30T14:59:03.026Z,97904.44
2023-12-30T15:01:30.518Z,97893.84
2023-12-30T15:04:01.006Z,97902.75
2023-12-30T15:06:28.735Z,97903.75
2023-12-30T15:08:57.012Z,97885.09
2023-12-30T15:11:24.014Z,97891.41
2023-12-30T15:13:52.859Z,97888.81
2023-12-30T15:16:20.622Z,97889.09
2023-12-30T15:18:48.043Z,97884.66
2023-12-30T15:21:15.671Z,97877.94
2023-12-30T15:23:42.822Z,97872.72
2023-12-30T15:26:09.913Z,97877.09
2023-12-30T15:28:38.103Z,97877.22
2023-12-30T15:31:05.484Z,97878.00
2023-12-30T15:33:33.073Z,97876.50
2023-12-30T15:36:03.672Z,97875.53
2023-12-30T15:38:32.956Z,97869.22
2023-12-30T15:41:00.672Z,97864.03
2023-12-30T15:43:29.228Z,97869.59
2023-12-30T15:45:56.335Z,97860.19
2023-12-30T15:48:23.502Z,97860.06
2023-12-30T15:50:52.079Z,97862.34
2023-12-30T15:53:19.870Z,97854.94
2023-12-30T15:55:48.734Z,97868.53
2023-12-30T15:58:15.855Z,97860.66
2023-12-30T16:00:43.100Z,97861.53
2023-12-30T16:03:12.819Z,97856.06
2023-12-30T16:05:41.545Z,97854.81
2023-12-30T16:08:10.944Z,97856.38
2023-12-30T16:10:38.348Z,97854.03
2023-12-30T16:13:08.270Z,97853.63
2023-12-30T16:15:37.887Z,97846.56
2023-12-30T16:18:06.375Z,97835.84
2023-12-30T16:20:33.547Z,97839.94
2023-12-30T16:23:05.265Z,97830.84
2023-12-30T16:25:32.902Z,97829.16
2023-12-30T16:27:59.995Z,97837.16
2023-12-30T16:30:27.265Z,97834.59
2023-12-30T16:32:54.832Z,97835.16
2023-12-30T16:35:22.029Z,97829.31
2023-12-30T16:37:49.291Z,97834.59
2023-12-30T16:40:17.534Z,97829.06
2023-12-30T16:42:44.574Z,97822.78
2023-12-30T16:45:11.653Z,97823.31
2023-12-30T16:47:41.610Z,97815.69
2023-12-30T16:50:08.838Z,97817.63
2023-12-30T16:52:36.973Z,97816.88
2023-12-30T16:55:04.678Z,97832.28
2023-12-30T16:57:31.678Z,97823.59
2023-12-30T16:59:58.790Z,97810.16
2023-12-30T17:02:25.909Z,97824.06
2023-12-30T17:04:53.085Z,97817.88
2023-12-30T17:07:20.322Z,97824.16
2023-12-30T17:09:47.412Z,97815.03
2023-12-30T17:12:14.408Z,97819.72
2023-12-30T17:14:41.682Z,97820.50
2023-12-30T17:17:08.755Z,97813.31
2023-12-30T17:19:36.270Z,97800.72
2023-12-30T17:22:03.658Z,97802.41
2023-12-30T17:24:30.771Z,97803.47
2023-12-30T17:26:57.808Z,97804.28
2023-12-30T17:29:24.793Z,97799.28
2023-12-30T17:31:53.769Z,97799.59
2023-12-30T17:34:20.963Z,97800.66
2023-12-30T17:36:47.963Z,97797.28
2023-12-30T17:39:15.844Z,97791.00
2023-12-30T17:41:42.892Z,97797.63
2023-12-30T17:44:09.948Z,97795.38
2023-12-30T17:46:37.068Z,97789.56
2023-12-30T17:49:04.291Z,97798.50
2023-12-30T17:51:31.383Z,97796.56
2023-12-30T17:53:58.468Z,97800.22
2023-12-30T17:56:25.558Z,97801.59
2023-12-30T17:58:54.495Z,97802.31
2023-12-30T18:01:21.581Z,97803.16
2023-12-30T18:03:48.796Z,97802.91
2023-12-30T18:06:15.801Z,97810.75
2023-12-30T18:08:42.841Z,97794.91
2023-12-30T18:11:10.547Z,97793.75
2023-12-30T18:13:38.347Z,97794.19
2023-12-30T18:16:06.082Z,97794.19
2023-12-30T18:18:33.203Z,97789.06
2023-12-30T18:21:00.322Z,97788.56
2023-12-30T18:23:27.376Z,97794.06
2023-12-30T18:25:54.596Z,97785.50
2023-12-30T18:28:21.685Z,97783.94
2023-12-30T18:30:48.948Z,97777.16
2023-12-30T18:33:16.118Z,97783.47
2023-12-30T18:35:43.304Z,97772.31
2023-12-30T18:38:10.444Z,97781.72
2023-12-30T18:40:38.538Z,97772.66
2023-12-30T18:43:05.731Z,97767.81
2023-12-30T18:45:32.818Z,97775.84
2023-12-30T18:48:00.216Z,97774.28
2023-12-30T18:50:27.256Z,97759.59
2023-12-30T18:52:54.372Z,97770.09
2023-12-30T18:55:21.472Z,97764.63
2023-12-30T18:57:48.593Z,97759.03
2023-12-30T19:00:16.213Z,97768.81
2023-12-30T19:02:43.229Z,97765.91
2023-12-30T19:05:11.409Z,97762.78
2023-12-30T19:07:38.709Z,97762.78
2023-12-30T19:10:06.266Z,97762.00
2023-12-30T19:12:33.365Z,97758.53
2023-12-30T19:15:02.464Z,97759.34
2023-12-30T19:17:30.132Z,97753.63
2023-12-30T19:19:57.308Z,97756.34
2023-12-30T19:22:24.486Z,97748.34
2023-12-30T19:24:51.661Z,97733.13
2023-12-30T19:27:18.669Z,97734.34
2023-12-30T19:29:45.753Z,97724.75
2023-12-30T19:32:12.747Z,97722.88
2023-12-30T19:34:39.878Z,97720.00
2023-12-30T19:37:07.428Z,97719.00
2023-12-30T19:39:34.458Z,97713.97
2023-12-30T19:42:01.528Z,97712.16
2023-12-30T19:44:29.055Z,97714.44
2023-12-30T19:46:56.480Z,97706.50
2023-12-30T19:49:23.569Z,97706.63
2023-12-30T19:51:51.557Z,97706.28
2023-12-30T19:54:22.553Z,97692.06
2023-12-30T19:56:49.794Z,97695.44
2023-12-30T19:59:16.794Z,97689.19
2023-12-30T20:01:43.906Z,97690.59
2023-12-30T20:04:11.297Z,97692.16
2023-12-30T20:06:40.893Z,97690.16
2023-12-30T20:09:07.961Z,97684.91
2023-12-30T20:11:34.960Z,97687.59
2023-12-30T20:14:01.943Z,97676.66
2023-12-30T20:16:29.145Z,97683.72
2023-12-30T20:18:56.285Z,97679.91
2023-12-30T20:21:23.327Z,97681.72
2023-12-30T20:23:50.491Z,97673.19
2023-12-30T20:26:17.473Z,97674.44
2023-12-30T20:28:44.562Z,97666.28
2023-12-30T20:31:11.724Z,97664.84
2023-12-30T20:33:39.172Z,97669.44
2023-12-30T20:36:07.182Z,97668.88
2023-12-30T20:38:35.655Z,97664.41
2023-12-30T20:41:02.754Z,97668.72
2023-12-30T20:43:29.852Z,97666.50
2023-12-30T20:45:57.298Z,97661.72
2023-12-30T20:48:24.391Z,97667.16
2023-12-30T20:50:52.015Z,97661.38
2023-12-30T20:53:19.091Z,97663.53
2023-12-30T20:55:46.247Z,97657.59
2023-12-30T20:58:13.868Z,97652.47
2023-12-30T21:00:41.326Z,97649.78
2023-12-30T21:03:08.419Z,97651.34
2023-12-30T21:05:35.613Z,97655.59
2023-12-30T21:08:02.725Z,97647.22
2023-12-30T21:10:30.050Z,97645.75
2023-12-30T21:12:57.126Z,97641.88
2023-12-30T21:15:25.502Z,97640.63
2023-12-30T21:17:52.765Z,97639.97
2023-12-30T21:20:19.864Z,97629.69
2023-12-30T21:22:47.137Z,97631.59
2023-12-30T21:25:19.697Z,97622.53
2023-12-30T21:27:53.563Z,97622.75
2023-12-30T21:30:20.680Z,97617.84
2023-12-30T21:32:50.766Z,97616.28
2023-12-30T21:35:20.042Z,97615.63
2023-12-30T21:37:48.381Z,97608.91
2023-12-30T21:40:20.181Z,97615.16
2023-12-30T21:42:47.338Z,97607.09
2023-12-30T21:45:14.357Z,97610.34
2023-12-30T21:47:42.246Z,97603.88
2023-12-30T21:50:09.780Z,97596.94
2023-12-30T21:52:38.892Z,97598.28
2023-12-30T21:55:06.969Z,97597.72
2023-12-30T21:57:34.061Z,97588.03
2023-12-30T22:00:01.704Z,97586.78
2023-12-30T22:02:31.239Z,97587.56
2023-12-30T22:04:58.399Z,97582.88
2023-12-30T22:07:25.493Z,97581.09
2023-12-30T22:09:52.581Z,97576.84
2023-12-30T22:12:20.858Z,97576.75
2023-12-30T22:14:48.029Z,97578.53
2023-12-30T22:17:15.588Z,97569.34
2023-12-30T22:19:42.789Z,97563.91
2023-12-30T22:22:09.994Z,97565.91
2023-12-30T22:24:37.027Z,97559.09
2023-12-30T22:27:04.330Z,97563.66
2023-12-30T22:29:31.351Z,97555.94
2023-12-30T22:31:59.210Z,97555.63
2023-12-30T22:34:26.304Z,97550.38
2023-12-30T22:36:53.605Z,97549.81
2023-12-30T22:39:20.760Z,97548.81
2023-12-30T22:41:47.906Z,97550.16
2023-12-30T22:44:14.908Z,97548.47
2023-12-30T22:46:45.538Z,97544.91
2023-12-30T22:49:12.955Z,97538.31
2023-12-30T22:51:47.333Z,97533.84
2023-12-30T22:56:58.016Z,97525.59
2023-12-30T22:59:25.083Z,97512.59
2023-12-30T23:01:52.237Z,97506.69
2023-12-30T23:04:19.280Z,97495.28
2023-12-30T23:06:48.989Z,97494.38
2023-12-30T23:09:16.905Z,97494.25
2023-12-30T23:11:44.109Z,97485.78
2023-12-30T23:14:11.274Z,97481.53
2023-12-30T23:16:38.599Z,97470.59
2023-12-30T23:19:05.745Z,97465.00
2023-12-30T23:21:33.144Z,97461.66
2023-12-30T23:24:00.298Z,97456.41
2023-12-30T23:26:27.318Z,97453.28
2023-12-30T23:28:55.001Z,97451.97
2023-12-30T23:31:22.235Z,97448.94
2023-12-30T23:33:49.363Z,97444.59
2023-12-30T23:36:16.460Z,97434.31
2023-12-30T23:38:43.938Z,97429.75
2023-12-30T23:41:10.987Z,97423.72
2023-12-30T23:43:38.000Z,97424.41
2023-12-30T23:46:05.057Z,97416.69
2023-12-30T23:48:32.138Z,97406.97
2023-12-30T23:50:59.158Z,97401.81
2023-12-30T23:53:26.212Z,97389.56
2023-12-30T23:55:53.563Z,97378.59
2023-12-30T23:58:20.609Z,97382.44
